createdAt,value
2019-03-29T00:00:32.579Z,9.20
2019-03-29T00:05:35.985Z,9.10
2019-03-29T00:10:39.140Z,8.90
2019-03-29T00:15:43.431Z,8.80
2019-03-29T00:20:47.162Z,8.60
2019-03-29T00:25:50.256Z,8.40
2019-03-29T00:30:53.225Z,8.20
2019-03-29T00:35:56.533Z,8.10
2019-03-29T00:41:00.105Z,8.10
2019-03-29T00:46:03.155Z,8.20
2019-03-29T00:51:06.291Z,8.20
2019-03-29T00:56:09.639Z,8.30
2019-03-29T01:01:13.981Z,8.30
2019-03-29T01:06:17.132Z,8.30
2019-03-29T01:11:20.263Z,8.40
2019-03-29T01:16:23.867Z,8.50
2019-03-29T01:21:26.969Z,8.60
2019-03-29T01:26:30.123Z,8.70
2019-03-29T01:31:33.102Z,8.80
2019-03-29T01:36:36.090Z,9.00
2019-03-29T01:41:39.354Z,9.10
2019-03-29T01:46:42.873Z,9.20
2019-03-29T01:51:46.179Z,9.30
2019-03-29T01:56:49.809Z,9.50
2019-03-29T02:01:54.942Z,9.60
2019-03-29T02:06:59.121Z,9.60
2019-03-29T02:12:03.425Z,9.70
2019-03-29T02:17:06.425Z,9.80
2019-03-29T02:22:09.828Z,9.70
2019-03-29T02:27:13.050Z,9.80
2019-03-29T02:32:16.103Z,9.70
2019-03-29T02:37:19.161Z,9.70
2019-03-29T02:42:22.399Z,9.70
2019-03-29T02:47:26.376Z,9.70
2019-03-29T02:52:29.522Z,9.70
2019-03-29T02:57:32.507Z,9.70
2019-03-29T03:02:35.544Z,9.70
2019-03-29T03:07:38.622Z,9.60
2019-03-29T03:12:41.905Z,9.60
2019-03-29T03:17:45.385Z,9.70
2019-03-29T03:22:48.297Z,9.70
2019-03-29T03:27:51.431Z,9.70
2019-03-29T03:32:54.541Z,9.70
2019-03-29T03:37:57.596Z,9.70
2019-03-29T03:43:00.721Z,9.60
2019-03-29T03:48:03.674Z,9.60
2019-03-29T03:53:06.801Z,9.60
2019-03-29T03:58:11.852Z,9.60
2019-03-29T04:03:14.978Z,9.60
2019-03-29T04:08:18.095Z,9.60
2019-03-29T04:13:21.448Z,9.60
2019-03-29T04:18:24.431Z,9.60
2019-03-29T04:23:27.777Z,9.60
2019-03-29T04:28:30.966Z,9.60
2019-03-29T04:33:34.058Z,9.60
2019-03-29T04:38:37.206Z,9.60
2019-03-29T04:43:41.961Z,9.60
2019-03-29T04:48:45.136Z,9.60
2019-03-29T04:53:48.194Z,9.60
2019-03-29T04:58:51.340Z,9.60
2019-03-29T05:03:54.391Z,9.60
2019-03-29T05:08:57.550Z,9.60
2019-03-29T05:14:00.688Z,9.70
2019-03-29T05:19:03.739Z,9.70
2019-03-29T05:24:07.624Z,9.80
2019-03-29T05:29:10.696Z,9.90
2019-03-29T05:34:14.148Z,9.90
2019-03-29T05:39:17.281Z,9.90
2019-03-29T05:44:20.248Z,10.00
2019-03-29T05:49:23.191Z,9.90
2019-03-29T06:00:15.949Z,9.80
2019-03-29T06:05:19.743Z,9.80
2019-03-29T06:10:22.703Z,9.80
2019-03-29T06:15:26.039Z,9.80
2019-03-29T06:20:29.047Z,9.70
2019-03-29T06:25:33.304Z,9.70
2019-03-29T06:30:36.210Z,9.70
2019-03-29T06:35:42.027Z,9.80
2019-03-29T06:40:44.887Z,9.90
2019-03-29T06:45:48.457Z,10.00
2019-03-29T06:50:51.486Z,10.00
2019-03-29T06:55:59.106Z,10.10
2019-03-29T07:01:01.571Z,10.20
2019-03-29T07:06:04.564Z,10.30
2019-03-29T07:11:17.115Z,10.40
2019-03-29T07:16:12.699Z,10.50
2019-03-29T07:21:21.599Z,10.60
2019-03-29T07:26:21.213Z,10.70
2019-03-29T07:37:27.065Z,11.10
2019-03-29T07:42:31.967Z,11.30
2019-03-29T07:47:35.973Z,11.60
2019-03-29T07:52:39.387Z,11.80
2019-03-29T07:57:42.787Z,12.10
2019-03-29T08:02:45.607Z,12.40
2019-03-29T08:07:48.995Z,12.60
2019-03-29T08:12:52.671Z,12.60
2019-03-29T08:17:55.581Z,12.80
2019-03-29T08:22:59.619Z,13.00
2019-03-29T08:28:02.741Z,13.70
2019-03-29T08:33:05.933Z,14.50
2019-03-29T08:38:09.980Z,15.10
2019-03-29T08:43:12.893Z,15.60
2019-03-29T08:48:15.845Z,15.70
2019-03-29T08:53:18.781Z,15.90
2019-03-29T08:58:23.008Z,15.80
2019-03-29T09:03:26.059Z,15.70
2019-03-29T09:08:29.628Z,15.80
2019-03-29T09:13:32.625Z,15.70
2019-03-29T09:18:35.619Z,16.20
2019-03-29T09:23:38.712Z,16.80
2019-03-29T09:28:42.946Z,17.40
2019-03-29T09:33:47.560Z,17.80
2019-03-29T09:38:50.763Z,17.80
2019-03-29T09:43:54.506Z,17.70
2019-03-29T09:48:57.787Z,17.60
2019-03-29T09:54:00.759Z,17.80
2019-03-29T09:59:24.235Z,17.60
2019-03-29T10:04:29.362Z,17.20
2019-03-29T10:09:32.800Z,16.90
2019-03-29T10:14:35.769Z,16.70
2019-03-29T10:19:38.841Z,16.60
2019-03-29T10:24:41.774Z,16.60
2019-03-29T10:29:45.689Z,16.60
2019-03-29T10:34:48.784Z,16.50
2019-03-29T10:39:51.831Z,16.40
2019-03-29T10:44:55.755Z,16.40
2019-03-29T10:50:00.393Z,16.40
2019-03-29T10:55:03.608Z,16.60
2019-03-29T11:00:11.723Z,16.80
2019-03-29T11:05:15.662Z,17.00
2019-03-29T11:10:29.490Z,17.10
2019-03-29T11:15:32.699Z,17.20
2019-03-29T11:20:35.830Z,17.20
2019-03-29T11:25:38.828Z,17.20
2019-03-29T11:30:43.094Z,17.30
2019-03-29T11:35:47.524Z,17.20
2019-03-29T11:40:55.327Z,17.20
2019-03-29T11:45:58.748Z,17.20
2019-03-29T11:51:01.995Z,17.10
2019-03-29T11:56:04.956Z,17.30
2019-03-29T12:01:07.859Z,17.40
2019-03-29T12:06:11.007Z,17.50
2019-03-29T12:11:14.058Z,17.50
2019-03-29T12:16:17.547Z,17.70
2019-03-29T12:21:20.554Z,17.80
2019-03-29T12:26:23.487Z,18.00
2019-03-29T12:31:26.611Z,18.00
2019-03-29T12:36:30.539Z,18.00
2019-03-29T12:41:37.660Z,18.10
2019-03-29T12:52:42.219Z,18.10
2019-03-29T12:57:45.325Z,18.30
2019-03-29T13:02:48.256Z,18.30
2019-03-29T13:07:53.234Z,18.40
2019-03-29T13:13:00.730Z,18.50
2019-03-29T13:18:04.224Z,18.50
2019-03-29T13:23:07.157Z,18.60
2019-03-29T13:28:10.130Z,18.60
2019-03-29T13:33:13.065Z,18.60
2019-03-29T13:38:20.162Z,18.70
2019-03-29T13:43:21.995Z,18.80
2019-03-29T13:48:24.947Z,18.90
2019-03-29T13:53:27.855Z,18.90
2019-03-29T13:58:30.783Z,18.90
2019-03-29T14:03:34.455Z,18.90
2019-03-29T14:08:37.484Z,19.00
2019-03-29T14:13:40.458Z,19.00
2019-03-29T14:18:44.079Z,19.10
2019-03-29T14:23:48.989Z,19.30
2019-03-29T14:28:51.906Z,20.00
2019-03-29T14:33:54.774Z,21.70
2019-03-29T14:38:58.807Z,24.80
2019-03-29T14:44:01.787Z,27.50
2019-03-29T14:49:04.710Z,29.60
2019-03-29T14:54:07.677Z,31.20
2019-03-29T14:59:15.446Z,32.40
2019-03-29T15:04:18.603Z,33.20
2019-03-29T15:09:22.626Z,34.10
2019-03-29T15:14:32.369Z,34.50
2019-03-29T15:19:35.338Z,35.00
2019-03-29T15:24:38.270Z,35.20
2019-03-29T15:29:41.627Z,35.40
2019-03-29T15:34:45.232Z,35.40
2019-03-29T15:39:48.356Z,35.20
2019-03-29T15:44:51.312Z,35.20
2019-03-29T15:55:55.956Z,34.10
2019-03-29T16:00:59.088Z,33.20
2019-03-29T16:11:48.434Z,33.20
2019-03-29T16:28:26.337Z,32.30
2019-03-29T16:33:29.298Z,32.10
2019-03-29T16:38:32.339Z,31.50
2019-03-29T16:43:36.279Z,30.70
2019-03-29T16:48:39.360Z,29.50
2019-03-29T16:53:42.336Z,28.00
2019-03-29T16:58:45.219Z,26.70
2019-03-29T17:09:35.781Z,24.00
2019-03-29T17:20:25.502Z,20.30
2019-03-29T17:25:28.403Z,18.70
2019-03-29T17:30:37.805Z,17.20
2019-03-29T17:35:40.988Z,16.00
2019-03-29T17:40:43.933Z,15.00
2019-03-29T17:45:47.237Z,14.00
2019-03-29T17:50:50.212Z,13.20
2019-03-29T17:55:53.156Z,12.50
2019-03-29T18:00:56.019Z,11.90
2019-03-29T18:05:58.929Z,11.50
2019-03-29T18:11:01.983Z,11.00
2019-03-29T18:16:05.109Z,10.70
2019-03-29T18:21:09.936Z,10.40
2019-03-29T18:26:15.736Z,10.20
2019-03-29T18:48:49.759Z,9.30
2019-03-29T18:54:04.399Z,9.10
2019-03-29T18:59:08.212Z,8.90
2019-03-29T19:04:12.095Z,8.80
2019-03-29T19:09:15.259Z,8.70
2019-03-29T19:14:18.109Z,8.60
2019-03-29T19:19:21.203Z,8.50
2019-03-29T19:24:24.549Z,8.30
2019-03-29T19:29:27.839Z,8.20
2019-03-29T19:34:30.796Z,8.10
2019-03-29T19:39:33.711Z,7.90
2019-03-29T19:44:36.913Z,7.80
2019-03-29T19:49:40.055Z,7.70
2019-03-29T19:54:43.052Z,7.50
2019-03-29T19:59:48.152Z,7.40
2019-03-29T20:10:14.847Z,7.00
2019-03-29T20:15:17.794Z,6.80
2019-03-29T20:20:25.283Z,6.60
2019-03-29T20:25:28.255Z,6.40
2019-03-29T20:30:31.103Z,6.30
2019-03-29T20:35:34.087Z,6.20
2019-03-29T20:40:37.026Z,6.10
2019-03-29T20:45:41.011Z,6.10
2019-03-29T20:50:44.830Z,6.00
2019-03-29T20:55:47.771Z,5.90
2019-03-29T21:00:50.691Z,5.90
2019-03-29T21:05:53.699Z,5.80
2019-03-29T21:10:56.706Z,5.70
2019-03-29T21:15:59.803Z,5.60
2019-03-29T21:21:04.217Z,5.50
2019-03-29T21:26:07.207Z,5.30
2019-03-29T21:31:10.482Z,5.20
2019-03-29T21:36:13.680Z,5.20
2019-03-29T21:41:17.591Z,5.20
2019-03-29T21:46:20.725Z,5.10
2019-03-29T21:51:24.874Z,5.00
2019-03-29T21:56:28.972Z,4.80
2019-03-29T22:01:33.830Z,4.70
2019-03-29T22:06:36.695Z,4.60
2019-03-29T22:11:39.876Z,4.50
2019-03-29T22:16:43.686Z,4.50
2019-03-29T22:21:47.697Z,4.30
2019-03-29T22:26:50.586Z,4.30
2019-03-29T22:31:54.147Z,4.20
2019-03-29T22:36:57.572Z,4.20
2019-03-29T22:42:00.719Z,4.10
2019-03-29T22:47:03.712Z,4.00
2019-03-29T22:52:07.274Z,4.00
2019-03-29T22:57:10.172Z,4.00
2019-03-29T23:02:14.166Z,3.90
2019-03-29T23:07:17.088Z,3.80
2019-03-29T23:12:20.055Z,3.70
2019-03-29T23:17:22.988Z,3.60
2019-03-29T23:22:27.006Z,3.50
2019-03-29T23:27:29.936Z,3.50
2019-03-29T23:32:32.883Z,3.40
2019-03-29T23:37:35.898Z,3.30
2019-03-29T23:42:39.024Z,3.30
2019-03-29T23:47:42.275Z,3.10
2019-03-29T23:52:45.585Z,3.10
2019-03-29T23:57:48.583Z,3.00
